Vanndale, Arkansas
Current Conditions -  °F | °C
As of 4:56 PM on Thursday 23 Oct 2014 (Local Time) from KM19 Reporting Station
Clear Clear  
Wind Chill: 58°   Ceiling: Unl
Heat Index: 58°   Visibility: 10mi
Dew Point: 47°   Wind: 6mph
Humidity: 67%   Direction: 60°ENE
Pressure: 30.16"   Gusts: NA
Location:  35.31°N, 90.77°W
Report Text: KM19 232156Z AUTO 06005KT 10SM CLR 14/08 A3016 RMK AO2 T01440083 SLP211
Loading
Personal Weather Stations






























Interactive Weather Map
Tropical Storm Tracking
New forecast layout! Learn more

10-Day Weather Forecast

Advertisements
Track Severe Weather on mobile